Time;durP1;ratioP1;P1;durP2;ratioP2;P2;SDS_P1;SDS_P2;PMS_P1;PMS_P2;Temp;Humidity;BMP_temperature;BMP_pressure;BME280_temperature;BME280_humidity;BME280_pressure;Samples;Min_cycle;Max_cycle;Signal;HPM_P1;HPM_P2
2023/10/27 00:02:24;;;;;;;69.22;14.98;;;;;;;7.16;100.00;97443.16;5054295;28;20058;-91
2023/10/27 00:04:50;;;;;;;57.33;13.93;;;;;;;7.13;100.00;97433.84;5059622;28;20476;-92
2023/10/27 00:07:16;;;;;;;53.40;13.68;;;;;;;7.20;100.00;97436.47;5064509;28;20762;-91
2023/10/27 00:09:42;;;;;;;87.07;17.70;;;;;;;7.10;100.00;97423.75;5039700;28;20031;-89
2023/10/27 00:12:07;;;;;;;58.20;13.15;;;;;;;7.07;100.00;97427.56;5048700;28;20040;-89
2023/10/27 00:14:34;;;;;;;28.67;11.38;;;;;;;7.05;100.00;97424.34;5053593;28;20036;-92
2023/10/27 00:17:00;;;;;;;17.60;10.07;;;;;;;7.07;100.00;97413.63;5035369;28;20091;-91
2023/10/27 00:19:26;;;;;;;39.05;13.88;;;;;;;7.15;100.00;97423.16;5047963;28;20055;-92
2023/10/27 00:21:52;;;;;;;56.92;13.40;;;;;;;7.08;100.00;97420.50;5043135;28;20492;-91
2023/10/27 00:24:20;;;;;;;74.32;14.55;;;;;;;7.11;100.00;97422.72;5066760;28;20033;-89
2023/10/27 00:26:46;;;;;;;23.13;11.15;;;;;;;7.12;100.00;97428.78;5070453;28;20155;-89
2023/10/27 00:29:11;;;;;;;56.70;12.77;;;;;;;7.08;100.00;97412.63;5047088;28;20487;-92
2023/10/27 00:31:37;;;;;;;40.58;11.23;;;;;;;7.06;100.00;97412.00;5068442;28;20051;-92
2023/10/27 00:34:04;;;;;;;18.83;10.73;;;;;;;7.02;100.00;97416.03;5058243;28;20043;-92
2023/10/27 00:36:30;;;;;;;28.92;11.65;;;;;;;7.00;100.00;97416.22;5071866;28;20028;-92
2023/10/27 00:38:56;;;;;;;15.00;9.93;;;;;;;7.02;100.00;97416.03;5033564;28;20036;-90
2023/10/27 00:41:23;;;;;;;18.33;11.52;;;;;;;6.98;100.00;97412.16;5069754;28;20047;-89
2023/10/27 00:43:49;;;;;;;14.85;11.05;;;;;;;7.02;100.00;97419.47;5039534;28;20391;-89
2023/10/27 00:46:16;;;;;;;16.17;9.70;;;;;;;7.02;100.00;97414.22;5089519;28;20155;-92
2023/10/27 00:48:42;;;;;;;10.55;8.05;;;;;;;7.07;100.00;97416.25;5039834;28;20035;-91
2023/10/27 00:51:09;;;;;;;33.17;12.52;;;;;;;7.08;100.00;97415.25;5058283;28;20075;-92
2023/10/27 00:53:35;;;;;;;35.72;11.32;;;;;;;6.98;100.00;97407.72;5073258;28;20127;-92
2023/10/27 00:56:04;;;;;;;49.58;12.20;;;;;;;6.92;100.00;97411.97;5051497;28;20123;-92
2023/10/27 00:58:30;;;;;;;190.60;15.07;;;;;;;6.85;100.00;97413.72;5066026;28;20032;-92
2023/10/27 01:01:03;;;;;;;232.48;15.23;;;;;;;6.76;100.00;97397.34;5057437;28;20040;-92
2023/10/27 01:03:29;;;;;;;98.13;12.93;;;;;;;6.78;100.00;97412.91;5037470;28;20039;-92
2023/10/27 01:05:55;;;;;;;44.72;11.98;;;;;;;6.74;100.00;97407.22;5067510;28;20469;-92
2023/10/27 01:08:22;;;;;;;47.67;12.35;;;;;;;6.74;100.00;97406.41;5053569;28;20159;-92
2023/10/27 01:10:47;;;;;;;36.95;10.25;;;;;;;6.74;100.00;97417.72;5038802;28;20033;-91
2023/10/27 01:13:13;;;;;;;81.43;13.10;;;;;;;6.69;100.00;97409.63;5064262;28;20024;-91
2023/10/27 01:15:39;;;;;;;87.72;13.48;;;;;;;6.70;100.00;97408.63;5059041;28;20040;-92
2023/10/27 01:18:04;;;;;;;177.15;12.93;;;;;;;6.66;100.00;97408.19;5074294;28;20036;-90
2023/10/27 01:20:30;;;;;;;368.42;23.40;;;;;;;6.61;100.00;97407.16;5034368;28;20051;-89
2023/10/27 01:22:56;;;;;;;237.43;20.10;;;;;;;6.53;100.00;97411.56;5050068;28;20032;-89
2023/10/27 01:25:22;;;;;;;325.75;18.63;;;;;;;6.51;100.00;97400.47;5036411;28;20545;-92
2023/10/27 01:27:48;;;;;;;191.65;14.98;;;;;;;6.51;100.00;97405.72;5056891;28;20051;-93
2023/10/27 01:30:14;;;;;;;257.02;17.45;;;;;;;6.57;100.00;97411.97;5045134;28;20054;-92
2023/10/27 01:32:40;;;;;;;127.45;15.27;;;;;;;6.52;100.00;97407.31;5050962;28;20055;-92
2023/10/27 01:35:07;;;;;;;57.60;14.95;;;;;;;6.43;100.00;97406.66;5037517;28;20472;-91
2023/10/27 01:37:33;;;;;;;112.97;13.45;;;;;;;6.47;100.00;97406.28;5065808;28;20488;-92
2023/10/27 01:39:58;;;;;;;30.83;11.15;;;;;;;6.48;100.00;97402.66;5027368;28;20036;-92
2023/10/27 01:42:25;;;;;;;159.60;17.73;;;;;;;6.50;100.00;97396.19;5052057;28;20411;-92
2023/10/27 01:44:51;;;;;;;137.57;14.95;;;;;;;6.46;100.00;97397.59;5046035;28;20063;-92
2023/10/27 01:47:17;;;;;;;194.35;18.50;;;;;;;6.37;100.00;97391.69;5054212;28;20165;-92
2023/10/27 01:49:43;;;;;;;86.07;11.45;;;;;;;6.26;100.00;97397.50;5055969;28;20032;-92
2023/10/27 01:52:09;;;;;;;56.75;9.85;;;;;;;6.33;100.00;97391.28;5057750;28;20034;-91
2023/10/27 01:54:35;;;;;;;106.95;12.60;;;;;;;6.38;100.00;97393.31;5069010;28;20057;-91
2023/10/27 01:57:00;;;;;;;90.38;13.60;;;;;;;6.41;100.00;97392.13;5055784;28;20430;-91
2023/10/27 01:59:28;;;;;;;56.40;10.77;;;;;;;6.39;100.00;97388.88;5053630;28;20040;-91
2023/10/27 02:01:54;;;;;;;31.17;10.73;;;;;;;6.39;100.00;97383.63;5050308;28;20035;-92
2023/10/27 02:04:20;;;;;;;45.75;8.80;;;;;;;6.36;100.00;97384.81;5051870;28;20427;-92
2023/10/27 02:06:47;;;;;;;34.35;7.53;;;;;;;6.41;100.00;97394.75;5058487;28;20043;-91
2023/10/27 02:09:13;;;;;;;70.93;7.60;;;;;;;6.41;100.00;97387.69;5054955;28;20703;-91
2023/10/27 02:11:38;;;;;;;34.13;6.35;;;;;;;6.42;100.00;97376.19;5041440;28;20043;-91
2023/10/27 02:14:04;;;;;;;45.60;6.72;;;;;;;6.47;100.00;97380.84;5057718;28;20040;-91
2023/10/27 02:16:30;;;;;;;56.83;7.18;;;;;;;6.56;100.00;97378.88;5054773;28;20036;-91
2023/10/27 02:18:56;;;;;;;94.65;6.55;;;;;;;6.61;100.00;97371.22;5051597;28;20037;-91
2023/10/27 02:21:21;;;;;;;51.30;5.72;;;;;;;6.63;100.00;97366.59;5051089;28;20944;-91
2023/10/27 02:23:47;;;;;;;20.17;4.43;;;;;;;6.66;100.00;97373.25;5035355;28;20031;-92
2023/10/27 02:26:13;;;;;;;16.55;4.25;;;;;;;6.69;100.00;97370.25;5057381;28;20044;-91
2023/10/27 02:28:39;;;;;;;8.88;3.85;;;;;;;6.76;100.00;97368.47;5053267;28;20051;-92
2023/10/27 02:31:05;;;;;;;5.60;3.60;;;;;;;6.81;100.00;97368.69;5074236;28;20465;-92
2023/10/27 02:33:31;;;;;;;4.70;2.88;;;;;;;6.85;100.00;97366.47;5038134;28;20115;-92
2023/10/27 02:35:56;;;;;;;11.98;1.77;;;;;;;6.93;100.00;97368.09;5055321;28;20036;-92
2023/10/27 02:38:22;;;;;;;41.65;3.40;;;;;;;7.05;100.00;97365.72;5059403;28;20028;-93
2023/10/27 02:40:48;;;;;;;116.22;4.75;;;;;;;7.13;100.00;97364.75;5038914;28;20028;-92
2023/10/27 02:43:14;;;;;;;101.38;4.40;;;;;;;7.15;100.00;97368.78;5042621;28;20059;-92
2023/10/27 02:45:39;;;;;;;465.77;12.63;;;;;;;7.10;100.00;97373.84;5061169;28;20036;-92
2023/10/27 02:48:06;;;;;;;83.35;3.75;;;;;;;6.94;100.00;97365.28;5058702;28;20047;-92
2023/10/27 02:50:31;;;;;;;30.38;4.07;;;;;;;6.79;100.00;97362.00;5064874;28;20033;-89
2023/10/27 02:52:57;;;;;;;25.23;8.55;;;;;;;6.72;100.00;97371.69;5035785;28;20065;-89
2023/10/27 02:55:23;;;;;;;18.75;7.65;;;;;;;6.64;100.00;97367.41;5055699;28;20073;-89
2023/10/27 02:57:48;;;;;;;22.00;7.53;;;;;;;6.53;100.00;97364.31;5041622;28;20032;-92
2023/10/27 03:00:14;;;;;;;19.05;7.60;;;;;;;6.52;100.00;97362.72;5039066;28;20028;-92
2023/10/27 03:02:40;;;;;;;15.95;5.07;;;;;;;6.52;100.00;97365.34;5051448;28;20031;-91
2023/10/27 03:05:06;;;;;;;15.45;6.20;;;;;;;6.53;100.00;97366.94;5055532;28;20029;-92
2023/10/27 03:07:32;;;;;;;38.10;6.75;;;;;;;6.49;100.00;97357.84;5079743;28;20036;-92
2023/10/27 03:09:58;;;;;;;122.00;10.07;;;;;;;6.42;100.00;97349.94;5055918;28;20762;-92
2023/10/27 03:12:23;;;;;;;40.08;6.32;;;;;;;6.37;100.00;97359.41;5059306;28;20468;-92
2023/10/27 03:14:49;;;;;;;10.32;4.75;;;;;;;6.38;100.00;97361.03;5078532;28;20046;-92
2023/10/27 03:17:15;;;;;;;25.98;5.05;;;;;;;6.45;100.00;97356.59;5042618;28;20048;-91
2023/10/27 03:19:44;;;;;;;43.88;5.43;;;;;;;6.45;100.00;97353.97;5058889;28;20085;-92
2023/10/27 03:22:10;;;;;;;6.97;4.35;;;;;;;6.48;100.00;97358.88;5061946;28;20035;-91
2023/10/27 03:24:36;;;;;;;60.25;6.95;;;;;;;6.52;100.00;97354.03;5042105;28;20033;-91
2023/10/27 03:27:02;;;;;;;8.85;3.58;;;;;;;6.51;100.00;97349.78;5056838;28;20488;-92
2023/10/27 03:29:28;;;;;;;196.68;7.60;;;;;;;6.57;100.00;97356.88;5054411;28;20388;-92
2023/10/27 03:31:54;;;;;;;12.43;2.72;;;;;;;6.57;100.00;97351.63;5062377;28;20020;-92
2023/10/27 03:34:19;;;;;;;43.58;3.88;;;;;;;6.60;100.00;97353.88;5026752;28;20055;-92
2023/10/27 03:36:45;;;;;;;12.35;3.75;;;;;;;6.61;100.00;97350.22;5048489;28;20472;-91
2023/10/27 03:39:13;;;;;;;62.50;5.13;;;;;;;6.61;100.00;97350.22;5066770;28;20050;-92
2023/10/27 03:41:39;;;;;;;36.40;5.53;;;;;;;6.61;100.00;97346.81;5076805;28;20464;-93
2023/10/27 03:44:06;;;;;;;15.25;4.32;;;;;;;6.59;100.00;97339.13;5066741;28;20039;-91
2023/10/27 03:46:32;;;;;;;7.93;3.47;;;;;;;6.65;100.00;97343.59;5064383;28;20064;-92
2023/10/27 03:48:58;;;;;;;6.38;3.42;;;;;;;6.61;100.00;97344.19;5041500;28;20118;-92
2023/10/27 03:51:25;;;;;;;7.85;4.30;;;;;;;6.62;100.00;97340.53;5040892;28;20032;-92
2023/10/27 03:53:53;;;;;;;13.93;5.07;;;;;;;6.56;100.00;97339.53;5090756;28;20032;-92
2023/10/27 03:56:19;;;;;;;219.60;11.13;;;;;;;6.38;100.00;97338.22;5059737;28;20036;-92
2023/10/27 03:58:44;;;;;;;15.95;5.22;;;;;;;6.32;100.00;97345.03;5051905;28;20047;-92
2023/10/27 04:01:10;;;;;;;7.93;5.07;;;;;;;6.32;100.00;97333.75;5056159;28;20055;-92
2023/10/27 04:03:36;;;;;;;8.90;4.93;;;;;;;6.37;100.00;97341.84;5050182;28;20032;-91
2023/10/27 04:06:02;;;;;;;5.55;3.63;;;;;;;6.48;100.00;97344.94;5040413;28;20090;-92
2023/10/27 04:08:28;;;;;;;6.45;4.72;;;;;;;6.43;100.00;97333.19;5056250;28;20476;-91
2023/10/27 04:10:53;;;;;;;7.10;4.38;;;;;;;6.51;100.00;97339.28;5055150;28;20464;-92
2023/10/27 04:13:19;;;;;;;7.85;4.20;;;;;;;6.54;100.00;97341.53;5059808;28;20064;-91
2023/10/27 04:15:45;;;;;;;20.00;4.50;;;;;;;6.55;100.00;97332.63;5054765;28;20094;-91
2023/10/27 04:18:11;;;;;;;30.05;4.63;;;;;;;6.61;100.00;97336.31;5065620;28;20036;-91
2023/10/27 04:20:38;;;;;;;6.20;3.58;;;;;;;6.62;100.00;97338.75;5039125;28;20067;-91
2023/10/27 04:23:04;;;;;;;8.05;4.32;;;;;;;6.68;100.00;97331.88;5041756;28;20040;-92
2023/10/27 04:25:30;;;;;;;227.73;8.73;;;;;;;6.68;100.00;97331.88;5055913;28;20043;-91
2023/10/27 04:27:56;;;;;;;7.97;3.13;;;;;;;6.64;100.00;97328.03;5049724;28;20040;-91
2023/10/27 04:30:21;;;;;;;15.55;1.92;;;;;;;6.70;100.00;97324.63;5052934;28;20044;-90
2023/10/27 04:32:47;;;;;;;25.50;2.22;;;;;;;6.79;100.00;97333.94;5057695;28;20028;-92
2023/10/27 04:35:13;;;;;;;7.80;1.90;;;;;;;6.88;100.00;97331.16;5057564;28;20126;-92
2023/10/27 04:37:39;;;;;;;9.10;2.22;;;;;;;6.92;100.00;97324.50;5041512;28;20032;-92
2023/10/27 04:40:05;;;;;;;32.28;3.20;;;;;;;6.88;100.00;97329.31;5052915;28;20503;-92
2023/10/27 04:42:31;;;;;;;48.75;4.32;;;;;;;6.77;100.00;97325.44;5072767;28;20028;-92
2023/10/27 04:44:56;;;;;;;38.50;3.13;;;;;;;6.82;100.00;97330.09;5048756;28;20047;-92
2023/10/27 04:47:22;;;;;;;15.57;2.38;;;;;;;6.79;100.00;97331.31;5039546;28;20035;-92
2023/10/27 04:49:48;;;;;;;20.90;2.47;;;;;;;6.79;100.00;97325.25;5054658;28;20032;-91
2023/10/27 04:52:13;;;;;;;55.10;2.63;;;;;;;6.77;100.00;97327.28;5039271;28;20082;-92
2023/10/27 04:54:39;;;;;;;50.65;3.33;;;;;;;6.75;100.00;97326.66;5057481;28;20040;-92
2023/10/27 04:57:05;;;;;;;24.95;2.58;;;;;;;6.70;100.00;97317.56;5047152;28;20039;-91
2023/10/27 04:59:32;;;;;;;71.32;5.25;;;;;;;6.70;100.00;97317.56;5069325;28;20044;-91
2023/10/27 05:01:58;;;;;;;10.02;2.10;;;;;;;6.60;100.00;97311.88;5056928;28;20027;-92
2023/10/27 05:04:25;;;;;;;6.05;2.17;;;;;;;6.60;100.00;97321.56;5044478;28;20061;-92
2023/10/27 05:06:51;;;;;;;16.88;3.10;;;;;;;6.57;100.00;97326.22;5041151;28;20504;-92
2023/10/27 05:09:18;;;;;;;31.95;4.50;;;;;;;6.55;100.00;97327.38;5049430;28;20062;-92
2023/10/27 05:11:45;;;;;;;19.75;3.13;;;;;;;6.57;100.00;97326.22;5053324;28;20373;-91
2023/10/27 05:14:12;;;;;;;8.90;2.10;;;;;;;6.58;100.00;97321.75;5068492;28;20035;-92
2023/10/27 05:16:38;;;;;;;69.43;3.00;;;;;;;6.62;100.00;97320.38;5050601;28;20028;-92
2023/10/27 05:19:04;;;;;;;89.28;3.45;;;;;;;6.61;100.00;97310.84;5056916;28;20440;-92
2023/10/27 05:21:30;;;;;;;76.35;3.30;;;;;;;6.60;100.00;97317.13;5055188;28;20120;-91
2023/10/27 05:23:56;;;;;;;84.38;3.47;;;;;;;6.54;100.00;97310.84;5053145;28;20480;-91
2023/10/27 05:26:22;;;;;;;54.22;3.05;;;;;;;6.47;100.00;97322.34;5075396;28;20510;-91
2023/10/27 05:28:49;;;;;;;34.47;2.58;;;;;;;6.41;100.00;97316.03;5054671;28;20040;-92
2023/10/27 05:31:15;;;;;;;27.48;2.85;;;;;;;6.39;100.00;97325.91;5057587;28;20547;-92
2023/10/27 05:33:40;;;;;;;17.65;2.97;;;;;;;6.40;100.00;97322.28;5038494;28;20033;-91
2023/10/27 05:36:06;;;;;;;50.78;3.13;;;;;;;6.38;100.00;97319.88;5058544;28;20040;-91
2023/10/27 05:38:32;;;;;;;80.80;5.30;;;;;;;6.22;100.00;97326.25;5041518;28;20043;-92
2023/10/27 05:40:58;;;;;;;134.00;6.45;;;;;;;6.05;100.00;97320.50;5057923;28;20426;-92
2023/10/27 05:43:25;;;;;;;75.35;4.10;;;;;;;6.04;100.00;97322.31;5041996;28;20024;-92
2023/10/27 05:45:50;;;;;;;10.93;3.67;;;;;;;6.04;100.00;97322.31;5066474;28;20083;-91
2023/10/27 05:48:16;;;;;;;71.82;4.28;;;;;;;6.12;100.00;97325.75;5055907;28;20032;-91
2023/10/27 05:50:42;;;;;;;51.33;3.53;;;;;;;6.15;100.00;97314.88;5059764;28;20035;-80
2023/10/27 05:53:07;;;;;;;32.92;2.78;;;;;;;6.20;100.00;97318.56;5046933;28;20415;-92
2023/10/27 05:55:33;;;;;;;39.55;2.78;;;;;;;6.30;100.00;97320.84;5038965;28;20392;-92
2023/10/27 05:57:59;;;;;;;16.88;2.30;;;;;;;6.39;100.00;97318.03;5057677;28;20491;-92
2023/10/27 06:00:29;;;;;;;13.32;2.63;;;;;;;6.48;100.00;97321.31;5033496;28;20040;-92
2023/10/27 06:02:55;;;;;;;57.30;3.30;;;;;;;6.49;100.00;97317.69;5050778;28;20036;-92
2023/10/27 06:05:22;;;;;;;54.25;3.58;;;;;;;6.56;100.00;97327.19;5039159;28;20028;-92
2023/10/27 06:07:48;;;;;;;24.33;2.97;;;;;;;6.55;100.00;97312.47;5054872;28;20043;-92
2023/10/27 06:10:13;;;;;;;41.10;6.10;;;;;;;6.57;100.00;97314.88;5082454;28;20036;-92
2023/10/27 06:12:39;;;;;;;13.55;3.53;;;;;;;6.56;100.00;97314.06;5058587;28;20094;-92
2023/10/27 06:15:06;;;;;;;28.45;4.88;;;;;;;6.67;100.00;97312.69;5052986;28;20039;-92
2023/10/27 06:17:32;;;;;;;15.20;2.90;;;;;;;6.69;100.00;97315.94;5055489;28;20073;-92
2023/10/27 06:20:01;;;;;;;5.38;2.40;;;;;;;6.76;100.00;97317.78;5042684;28;20028;-92
2023/10/27 06:22:27;;;;;;;6.95;2.65;;;;;;;6.80;100.00;97314.56;5040777;28;20074;-91
2023/10/27 06:24:53;;;;;;;7.68;1.85;;;;;;;6.86;100.00;97318.22;5055388;28;20037;-91
2023/10/27 06:27:18;;;;;;;5.07;1.90;;;;;;;6.94;100.00;97325.91;5040252;28;20052;-92
2023/10/27 06:29:44;;;;;;;95.55;3.53;;;;;;;7.04;100.00;97320.28;5047743;28;20134;-92
2023/10/27 06:32:10;;;;;;;114.47;3.67;;;;;;;7.13;100.00;97310.41;5055773;28;20074;-93
2023/10/27 06:34:37;;;;;;;50.40;2.58;;;;;;;7.17;100.00;97311.59;5056046;28;20066;-92
2023/10/27 06:37:03;;;;;;;134.85;4.22;;;;;;;7.26;100.00;97316.69;5054884;28;20038;-93
2023/10/27 06:39:29;;;;;;;60.30;2.80;;;;;;;7.31;100.00;97317.69;5058924;28;20076;-92
2023/10/27 06:41:54;;;;;;;356.00;7.20;;;;;;;7.33;100.00;97309.59;5033521;28;20074;-92
2023/10/27 06:44:20;;;;;;;145.77;4.95;;;;;;;7.37;100.00;97310.00;5052968;28;20472;-92
2023/10/27 06:46:46;;;;;;;157.57;4.40;;;;;;;7.38;100.00;97309.81;5040103;28;20036;-92
2023/10/27 06:49:13;;;;;;;232.63;5.97;;;;;;;7.42;100.00;97312.84;5055464;28;20529;-92
2023/10/27 06:51:38;;;;;;;40.70;1.95;;;;;;;7.43;100.00;97317.09;5074864;28;20036;-91
2023/10/27 06:54:04;;;;;;;83.63;2.33;;;;;;;7.47;100.00;97320.13;5061928;28;20047;-89
2023/10/27 06:56:30;;;;;;;89.50;2.63;;;;;;;7.48;100.00;97314.69;5046161;28;20534;-93
2023/10/27 06:58:57;;;;;;;107.35;3.05;;;;;;;7.53;100.00;97316.69;5058061;28;20036;-93
2023/10/27 07:01:23;;;;;;;93.25;3.97;;;;;;;7.51;100.00;97316.06;5040273;28;20068;-92
2023/10/27 07:03:50;;;;;;;297.20;5.32;;;;;;;7.52;100.00;97312.44;5042947;28;20544;-93
2023/10/27 07:06:17;;;;;;;330.10;6.32;;;;;;;7.57;100.00;97323.97;5051760;28;20032;-93
2023/10/27 07:08:44;;;;;;;190.68;3.60;;;;;;;7.57;100.00;97326.59;5061044;28;20032;-92
2023/10/27 07:11:10;;;;;;;270.75;5.50;;;;;;;7.61;100.00;97329.63;5052643;28;20041;-92
2023/10/27 07:13:36;;;;;;;54.83;2.15;;;;;;;7.63;100.00;97335.47;5061516;28;20119;-92
2023/10/27 07:16:02;;;;;;;47.20;2.15;;;;;;;7.62;100.00;97331.25;5036064;28;20502;-92
2023/10/27 07:18:29;;;;;;;113.18;2.65;;;;;;;7.64;100.00;97331.88;5055901;28;20124;-92
2023/10/27 07:20:56;;;;;;;173.20;3.33;;;;;;;7.61;100.00;97334.06;5044402;28;20029;-92
2023/10/27 07:23:24;;;;;;;58.85;1.40;;;;;;;7.58;100.00;97327.38;5057010;28;20505;-92
2023/10/27 07:25:49;;;;;;;104.00;2.03;;;;;;;7.53;100.00;97333.25;5051553;28;20043;-91
2023/10/27 07:28:15;;;;;;;55.08;1.98;;;;;;;7.53;100.00;97338.50;5061120;28;20035;-92
2023/10/27 07:30:41;;;;;;;145.82;3.40;;;;;;;7.49;100.00;97341.75;5061012;28;20032;-92
2023/10/27 07:33:10;;;;;;;102.05;2.67;;;;;;;7.42;100.00;97336.50;5058144;28;20038;-92
2023/10/27 07:35:35;;;;;;;37.35;1.55;;;;;;;7.42;100.00;97349.66;5036563;28;20055;-92
2023/10/27 07:38:01;;;;;;;94.28;2.88;;;;;;;7.43;100.00;97352.06;5083667;28;20027;-92
2023/10/27 07:40:27;;;;;;;40.53;2.70;;;;;;;7.42;100.00;97347.00;5074246;28;20097;-91
2023/10/27 07:42:57;;;;;;;54.22;2.65;;;;;;;7.39;100.00;97355.31;5049304;28;20032;-92
2023/10/27 07:45:24;;;;;;;92.95;5.03;;;;;;;7.37;100.00;97358.13;5073706;28;20029;-92
2023/10/27 07:47:49;;;;;;;78.95;4.30;;;;;;;7.35;100.00;97351.44;5082646;28;20105;-93
2023/10/27 07:50:15;;;;;;;108.25;6.07;;;;;;;7.35;100.00;97347.00;5058720;28;20504;-92
2023/10/27 07:52:41;;;;;;;51.55;3.42;;;;;;;7.37;100.00;97362.56;5058563;28;20040;-92
2023/10/27 07:55:06;;;;;;;42.45;2.10;;;;;;;7.26;100.00;97354.25;5071972;28;20052;-92
2023/10/27 07:57:34;;;;;;;42.15;2.28;;;;;;;7.15;100.00;97349.59;5051343;28;20043;-92
2023/10/27 08:00:02;;;;;;;42.53;2.65;;;;;;;7.12;100.00;97363.91;5055632;28;20061;-92
2023/10/27 08:02:33;;;;;;;27.05;1.75;;;;;;;7.14;100.00;97367.16;5088480;28;20384;-93
2023/10/27 08:04:59;;;;;;;29.40;1.23;;;;;;;7.14;100.00;97361.09;5074084;28;20036;-91
2023/10/27 08:07:24;;;;;;;117.65;2.85;;;;;;;7.11;100.00;97364.13;5069327;28;20389;-92
2023/10/27 08:09:50;;;;;;;36.13;1.50;;;;;;;7.07;100.00;97356.63;5041759;28;20036;-92
2023/10/27 08:12:16;;;;;;;40.72;1.27;;;;;;;7.07;100.00;97355.84;5059634;28;20039;-92
2023/10/27 08:14:42;;;;;;;72.28;1.77;;;;;;;7.06;100.00;97367.34;5065974;28;20032;-92
2023/10/27 08:17:07;;;;;;;48.97;1.80;;;;;;;7.09;100.00;97366.16;5040125;28;20039;-92
2023/10/27 08:19:33;;;;;;;58.80;2.15;;;;;;;7.05;100.00;97374.44;5056761;28;20086;-92
2023/10/27 08:21:59;;;;;;;12.95;0.80;;;;;;;7.01;100.00;97367.13;5055049;28;20035;-91
2023/10/27 08:24:24;;;;;;;10.02;0.70;;;;;;;6.97;100.00;97368.53;5071515;28;20032;-92
2023/10/27 08:26:50;;;;;;;41.13;0.98;;;;;;;6.96;100.00;97375.59;5052788;28;20045;-92
2023/10/27 08:29:16;;;;;;;49.17;1.33;;;;;;;6.99;100.00;97362.06;5050002;28;20039;-93
2023/10/27 08:31:44;;;;;;;66.53;1.00;;;;;;;7.06;100.00;97369.97;5068261;28;20097;-92
2023/10/27 08:34:11;;;;;;;13.43;0.60;;;;;;;7.11;100.00;97364.94;5044773;28;20502;-91
2023/10/27 08:36:38;;;;;;;44.70;1.40;;;;;;;7.17;100.00;97374.66;5033611;28;20534;-92
2023/10/27 08:39:04;;;;;;;45.17;1.27;;;;;;;7.17;100.00;97368.56;5036505;28;20388;-92
2023/10/27 08:41:30;;;;;;;23.90;1.25;;;;;;;7.21;100.00;97369.81;5048389;28;20044;-92
2023/10/27 08:43:57;;;;;;;35.67;1.10;;;;;;;7.23;100.00;97370.41;5048887;28;20036;-93
2023/10/27 08:46:24;;;;;;;28.30;1.55;;;;;;;7.22;100.00;97371.44;5050619;28;20040;-92
2023/10/27 08:48:50;;;;;;;39.92;2.10;;;;;;;7.18;100.00;97376.25;5034084;28;20119;-92
2023/10/27 08:51:17;;;;;;;47.30;1.70;;;;;;;7.21;100.00;97377.69;5042786;28;20033;-93
2023/10/27 08:53:44;;;;;;;71.13;1.92;;;;;;;7.23;100.00;97380.13;5070412;28;20029;-92
2023/10/27 08:56:13;;;;;;;19.92;1.30;;;;;;;7.26;100.00;97377.88;5032602;28;20036;-92
2023/10/27 08:58:40;;;;;;;22.77;1.25;;;;;;;7.29;100.00;97374.06;5068909;28;20035;-93
2023/10/27 09:01:05;;;;;;;31.50;1.50;;;;;;;7.29;100.00;97372.25;5050626;28;20041;-92
2023/10/27 09:03:31;;;;;;;45.58;2.10;;;;;;;7.31;100.00;97369.44;5030880;28;20035;-91
2023/10/27 09:05:58;;;;;;;35.80;1.45;;;;;;;7.32;100.00;97366.63;5037817;28;20059;-92
2023/10/27 09:08:24;;;;;;;21.05;1.38;;;;;;;7.38;100.00;97366.81;5038791;28;20040;-92
2023/10/27 09:10:50;;;;;;;90.93;3.25;;;;;;;7.45;100.00;97373.69;5046133;28;20033;-93
2023/10/27 09:13:21;;;;;;;81.90;3.80;;;;;;;7.50;100.00;97370.44;5047834;28;20044;-91
2023/10/27 09:15:47;;;;;;;88.53;3.55;;;;;;;7.48;100.00;97369.03;5034786;28;20037;-91
2023/10/27 09:18:13;;;;;;;110.22;3.42;;;;;;;7.53;100.00;97366.63;5053029;28;20037;-92
2023/10/27 09:20:51;;;;;;;84.63;3.88;;;;;;;7.67;100.00;97367.44;5032479;28;20377;-93
2023/10/27 09:23:20;;;;;;;126.97;5.20;;;;;;;7.68;100.00;97367.25;5054106;28;20040;-93
2023/10/27 09:25:46;;;;;;;186.07;7.28;;;;;;;7.69;100.00;97373.31;5044667;28;20032;-92
2023/10/27 09:28:13;;;;;;;202.82;8.82;;;;;;;7.69;100.00;97368.84;5071071;28;20135;-86
2023/10/27 09:30:43;;;;;;;173.10;7.70;;;;;;;7.81;100.00;97371.69;5073280;28;20029;-92
2023/10/27 09:33:18;;;;;;;259.73;10.43;;;;;;;7.87;100.00;97372.69;5050779;28;20037;-93
2023/10/27 09:35:45;;;;;;;212.18;9.13;;;;;;;7.91;100.00;97379.19;5050772;28;20510;-92
2023/10/27 09:38:13;;;;;;;17.08;3.97;;;;;;;7.98;100.00;97370.47;5039147;28;20046;-92
2023/10/27 09:40:39;;;;;;;152.43;6.45;;;;;;;8.08;100.00;97373.50;5052048;28;20159;-80
2023/10/27 09:43:15;;;;;;;139.50;7.22;;;;;;;8.21;100.00;97382.38;5060114;28;20032;-92
2023/10/27 09:45:51;;;;;;;45.63;5.60;;;;;;;8.23;100.00;97381.16;5065979;28;20036;-92
2023/10/27 09:48:23;;;;;;;34.13;4.63;;;;;;;8.27;100.00;97378.91;5038550;28;20508;-93
2023/10/27 09:50:49;;;;;;;14.35;4.07;;;;;;;8.33;100.00;97372.84;5031679;28;20078;-92
2023/10/27 09:53:15;;;;;;;13.02;3.70;;;;;;;8.47;100.00;97378.91;5066237;28;20035;-92
2023/10/27 09:55:42;;;;;;;9.02;3.30;;;;;;;8.64;100.00;97374.00;5050914;28;20040;-92
2023/10/27 09:58:09;;;;;;;6.13;2.72;;;;;;;8.76;100.00;97378.63;5072250;28;20036;-92
2023/10/27 10:00:37;;;;;;;12.38;2.97;;;;;;;8.87;100.00;97379.78;5070266;28;20024;-89
2023/10/27 10:03:05;;;;;;;9.80;2.50;;;;;;;8.98;100.00;97384.38;5034832;28;20029;-89
2023/10/27 10:06:08;;;;;;;7.88;2.53;;;;;;;9.13;100.00;97378.84;5045467;28;20032;-91
2023/10/27 10:08:34;;;;;;;10.57;2.58;;;;;;;9.24;100.00;97372.09;5071061;28;20042;-90
2023/10/27 10:11:10;;;;;;;5.85;2.22;;;;;;;9.47;100.00;97365.47;5035091;28;20032;-92
2023/10/27 10:13:36;;;;;;;8.93;3.15;;;;;;;9.62;100.00;97364.38;5033885;28;20040;-92
2023/10/27 10:16:03;;;;;;;13.73;2.33;;;;;;;9.73;100.00;97362.84;5062417;28;20043;-91
2023/10/27 10:18:44;;;;;;;11.18;2.85;;;;;;;9.95;100.00;97363.28;5036519;28;20467;-91
2023/10/27 10:21:09;;;;;;;7.25;2.13;;;;;;;10.04;100.00;97366.44;5063838;28;20032;-89
2023/10/27 10:23:39;;;;;;;8.35;1.88;;;;;;;10.20;100.00;97364.25;5052448;28;20036;-90
2023/10/27 10:26:05;;;;;;;6.32;1.70;;;;;;;10.27;100.00;97376.34;5037971;28;20037;-90
2023/10/27 10:28:36;;;;;;;4.90;1.60;;;;;;;10.39;100.00;97362.44;5071908;28;20028;-89
2023/10/27 10:31:11;;;;;;;9.80;1.95;;;;;;;10.50;100.00;97363.56;5041029;28;20128;-91
2023/10/27 10:33:37;;;;;;;11.55;1.70;;;;;;;10.51;100.00;97360.72;5051409;28;20067;-90
2023/10/27 10:36:18;;;;;;;6.03;1.27;;;;;;;10.57;100.00;97366.97;5057254;28;20477;-91
2023/10/27 10:38:49;;;;;;;10.95;2.08;;;;;;;10.53;100.00;97366.59;5054971;28;20384;-92
2023/10/27 10:41:17;;;;;;;12.40;2.42;;;;;;;10.43;100.00;97366.28;5071391;28;20036;-91
2023/10/27 10:43:43;;;;;;;10.65;1.83;;;;;;;10.42;100.00;97365.47;5074334;28;20042;-90
2023/10/27 10:46:11;;;;;;;11.85;1.73;;;;;;;10.49;100.00;97370.72;5041824;28;20041;-91
2023/10/27 10:48:45;;;;;;;7.55;1.30;;;;;;;10.54;100.00;97360.25;5056910;28;20155;-91
2023/10/27 10:51:18;;;;;;;15.63;2.38;;;;;;;10.56;100.00;97357.41;5047792;28;20109;-92
2023/10/27 10:53:52;;;;;;;10.73;2.13;;;;;;;10.67;100.00;97363.81;5039826;28;20028;-91
2023/10/27 10:56:18;;;;;;;11.63;1.60;;;;;;;10.72;100.00;97357.84;5066257;28;20052;-91
2023/10/27 10:58:44;;;;;;;14.52;2.15;;;;;;;10.79;100.00;97356.75;5058452;28;20033;-90
2023/10/27 11:01:21;;;;;;;17.52;2.20;;;;;;;10.95;100.00;97353.69;5056329;28;20108;-90
2023/10/27 11:03:52;;;;;;;9.00;1.48;;;;;;;11.06;100.00;97357.41;5050567;28;20115;-91
2023/10/27 11:06:28;;;;;;;8.85;2.03;;;;;;;11.28;100.00;97353.25;5057201;28;20048;-91
2023/10/27 11:08:54;;;;;;;13.70;1.95;;;;;;;11.46;100.00;97345.47;5054019;28;20043;-92
2023/10/27 11:11:21;;;;;;;11.77;1.65;;;;;;;11.64;100.00;97341.94;5056188;28;20124;-90
2023/10/27 11:13:47;;;;;;;7.30;1.50;;;;;;;11.78;100.00;97347.81;5055276;28;20049;-92
2023/10/27 11:16:24;;;;;;;8.82;1.30;;;;;;;11.95;100.00;97339.19;5053329;28;20477;-90
2023/10/27 11:19:00;;;;;;;10.15;1.70;;;;;;;12.14;100.00;97342.53;5036270;28;20032;-91
2023/10/27 11:21:27;;;;;;;7.32;1.02;;;;;;;12.18;100.00;97343.72;5053979;28;20033;-92